Colorado Springs, CO

1:46 AM MDT on August 24, 2016 (GMT -0600)
City Of Colorado Springs Municipal | | Change Station

Elev 6171 ft 38.81 °N, 104.69 °W | Updated 52 minutes ago

Overcast
Overcast
63 °F
Feels Like 63 °F
N
4
Wind Variable Wind from ESE

Today
High -- | Low -- °F
--% Chance of Precip.
Yesterday
High -- | Low -- °F
Precip. -- in
Pressure 29.96 in
Visibility 10.0 miles
Clouds Mostly Cloudy 11000 ft
Overcast 20000 ft
Dew Point 42 °F
Humidity 46%
Rainfall 0.00 in
Snow Depth Not available.
6:21 AM 7:40 PM
Waning Gibbous, 59% visible
METAR KCOS 240654Z 11003KT 10SM BKN110 OVC200 17/06 A3023 RMK AO2 SLP144 T01720056 402940144
Pressure 29.96 in
Visibility 10.0 miles
Clouds Mostly Cloudy 11000 ft
Overcast 20000 ft
Dew Point 42 °F
Humidity 46%
Rainfall 0.00 in
Snow Depth Not available.
6:21 AM 7:40 PM
Waning Gibbous, 59% visible
METAR KCOS 240654Z 11003KT 10SM BKN110 OVC200 17/06 A3023 RMK AO2 SLP144 T01720056 402940144

10-Day Weather Forecast

Almanac

Astronomy

Aug. 24, 2016 Rise Set
Actual Time
Civil Twilight
Nautical Twilight
Astronomical Twilight
Moon
Length of Visible Light
Length of Day
Tomorrow will be .
, % of the Moon is Illuminated

Today's Extremes

State Highs State Lows

Community

WunderPhotos

Upload Photos

1,934,554 photos uploaded!

WunderBlog® & News

Nearby

Air Quality

  Air Quality AQ Index Pollutant
Not available.

Snow Depth

Station Depth Elevation

Earthquake Activity

City Distance Mag. Time & Date
Minimum magnitude displayed is 2.5.

Coastal Water Temperatures

Place Temperature

Stations

Nearby Weather Stations

Station Location Temp. Windchill Dew Point Humidity Wind Precip. Elev Updated Type
                   

Watches & Warnings

There are currently no watches in effect.